Time;durP1;ratioP1;P1;durP2;ratioP2;P2;SDS_P1;SDS_P2;PMS_P1;PMS_P2;Temp;Humidity;BMP_temperature;BMP_pressure;BME280_temperature;BME280_humidity;BME280_pressure;Samples;Min_cycle;Max_cycle;Signal;HPM_P1;HPM_P2
2023/10/22 00:02:17;;;;;;;14.68;8.40;;;7.80;99.90;;;;;;5109040;28;20043;-95
2023/10/22 00:04:44;;;;;;;18.17;10.63;;;7.80;99.90;;;;;;5109481;28;20031;-93
2023/10/22 00:07:10;;;;;;;11.57;7.95;;;7.80;99.90;;;;;;5106220;28;20057;-93
2023/10/22 00:09:36;;;;;;;17.10;10.43;;;7.70;99.90;;;;;;5109664;28;20466;-95
2023/10/22 00:12:01;;;;;;;15.77;9.02;;;7.80;99.90;;;;;;5097220;28;20036;-95
2023/10/22 00:14:27;;;;;;;15.20;8.93;;;7.70;99.90;;;;;;5100420;28;20051;-96
2023/10/22 00:16:53;;;;;;;13.60;9.80;;;7.70;99.90;;;;;;5100531;28;20035;-95
2023/10/22 00:19:19;;;;;;;12.50;8.52;;;7.70;99.90;;;;;;5103929;28;20024;-96
2023/10/22 00:21:47;;;;;;;12.07;8.43;;;7.80;99.90;;;;;;5106735;28;20077;-93
2023/10/22 00:24:13;;;;;;;13.88;9.23;;;7.80;99.90;;;;;;5104688;28;20036;-94
2023/10/22 00:26:39;;;;;;;12.70;8.15;;;7.80;99.90;;;;;;5105689;28;20028;-96
2023/10/22 00:29:06;;;;;;;9.40;7.25;;;7.80;99.90;;;;;;5106980;28;20048;-96
2023/10/22 00:31:31;;;;;;;9.65;6.97;;;7.80;99.90;;;;;;5108968;28;20028;-93
2023/10/22 00:33:57;;;;;;;10.18;6.50;;;7.80;99.90;;;;;;5113137;28;20099;-95
2023/10/22 00:36:24;;;;;;;9.38;6.53;;;7.80;99.90;;;;;;5110392;28;20087;-94
2023/10/22 00:38:53;;;;;;;15.13;6.88;;;7.80;99.90;;;;;;5111792;28;20027;-95
2023/10/22 00:41:18;;;;;;;8.38;5.72;;;7.80;99.90;;;;;;5116675;28;20028;-95
2023/10/22 00:43:44;;;;;;;8.30;6.32;;;7.80;99.90;;;;;;5115848;28;20028;-95
2023/10/22 00:46:24;;;;;;;8.73;5.63;;;7.80;99.90;;;;;;5113510;28;20028;-96
2023/10/22 00:48:50;;;;;;;9.35;5.43;;;7.80;99.90;;;;;;5115025;28;20036;-94
2023/10/22 00:51:17;;;;;;;9.07;5.25;;;7.80;99.90;;;;;;5112944;28;20036;-96
2023/10/22 00:53:45;;;;;;;7.18;4.88;;;7.70;99.90;;;;;;5116500;28;20024;-93
2023/10/22 00:56:12;;;;;;;7.70;4.90;;;7.70;99.90;;;;;;5121173;28;20012;-91
2023/10/22 00:58:38;;;;;;;8.82;4.70;;;7.70;99.90;;;;;;5121928;28;20109;-90
2023/10/22 01:01:07;;;;;;;10.23;4.80;;;7.70;99.90;;;;;;5121331;28;20008;-92
2023/10/22 01:03:35;;;;;;;3.63;3.00;;;7.70;99.90;;;;;;5121143;28;20091;-89
2023/10/22 01:06:04;;;;;;;5.63;3.55;;;7.60;99.90;;;;;;5121110;28;20274;-92
2023/10/22 01:08:33;;;;;;;7.63;3.47;;;7.60;99.90;;;;;;5112019;28;20049;-94
2023/10/22 01:11:09;;;;;;;6.15;2.50;;;7.60;99.90;;;;;;5108054;28;20020;-95
2023/10/22 01:13:36;;;;;;;5.25;2.70;;;7.60;99.90;;;;;;5106490;28;20028;-93
2023/10/22 01:16:02;;;;;;;5.50;2.67;;;7.60;99.90;;;;;;5112395;28;20024;-96
2023/10/22 01:18:28;;;;;;;2.70;2.40;;;7.60;99.90;;;;;;5114575;28;20143;-94
2023/10/22 01:20:54;;;;;;;2.80;2.00;;;7.50;99.90;;;;;;5114072;28;20028;-96
2023/10/22 01:23:20;;;;;;;4.35;2.40;;;7.50;99.90;;;;;;5113378;28;20124;-93
2023/10/22 01:25:45;;;;;;;6.85;2.75;;;7.50;99.90;;;;;;5113315;28;20021;-96
2023/10/22 01:28:11;;;;;;;5.07;2.03;;;7.50;99.90;;;;;;5111320;28;20054;-93
2023/10/22 01:30:37;;;;;;;3.03;1.70;;;7.50;99.90;;;;;;5108989;28;20450;-95
2023/10/22 01:33:02;;;;;;;4.50;1.85;;;7.50;99.90;;;;;;5110962;28;20035;-95
2023/10/22 01:35:28;;;;;;;4.70;2.10;;;7.50;99.90;;;;;;5111735;28;20421;-94
2023/10/22 01:37:53;;;;;;;5.22;2.10;;;7.50;99.90;;;;;;5111912;28;20028;-94
2023/10/22 01:40:19;;;;;;;3.63;2.55;;;7.50;99.90;;;;;;5112662;28;20051;-94
2023/10/22 01:42:45;;;;;;;4.05;2.03;;;7.50;99.90;;;;;;5119513;28;20036;-92
2023/10/22 01:45:12;;;;;;;6.47;1.90;;;7.50;99.90;;;;;;5120413;28;20020;-89
2023/10/22 01:47:38;;;;;;;4.60;1.70;;;7.50;99.90;;;;;;5120282;28;20024;-90
2023/10/22 01:50:05;;;;;;;2.50;1.77;;;7.40;99.90;;;;;;5120548;28;20035;-90
2023/10/22 01:52:31;;;;;;;4.32;2.75;;;7.40;99.90;;;;;;5120397;28;20039;-94
2023/10/22 01:54:57;;;;;;;3.75;1.85;;;7.40;99.90;;;;;;5121016;28;20008;-90
2023/10/22 01:57:23;;;;;;;4.18;1.90;;;7.40;99.90;;;;;;5116071;28;20107;-94
2023/10/22 01:59:50;;;;;;;3.22;1.50;;;7.40;99.90;;;;;;5115577;28;20024;-95
2023/10/22 02:02:17;;;;;;;3.67;1.80;;;7.40;99.90;;;;;;5108507;28;20119;-95
2023/10/22 02:04:43;;;;;;;2.97;2.25;;;7.30;99.90;;;;;;5104331;28;20388;-95
2023/10/22 02:07:09;;;;;;;4.95;2.20;;;7.30;99.90;;;;;;5101601;28;20031;-94
2023/10/22 02:09:34;;;;;;;4.38;2.30;;;7.30;99.90;;;;;;5103688;28;20071;-94
2023/10/22 02:12:00;;;;;;;3.30;1.90;;;7.30;99.90;;;;;;5105186;28;20425;-94
2023/10/22 02:14:26;;;;;;;2.28;1.70;;;7.30;99.90;;;;;;5103867;28;20055;-95
2023/10/22 02:16:52;;;;;;;2.58;2.30;;;7.40;99.90;;;;;;5102116;28;20467;-95
2023/10/22 02:19:18;;;;;;;2.17;1.80;;;7.30;99.90;;;;;;5103445;28;20024;-96
2023/10/22 02:21:45;;;;;;;5.10;2.20;;;7.40;99.90;;;;;;5102382;28;20042;-94
2023/10/22 02:24:10;;;;;;;2.38;1.80;;;7.40;99.90;;;;;;5104411;28;20024;-96
2023/10/22 02:26:36;;;;;;;4.43;2.08;;;7.40;99.90;;;;;;5102425;28;20017;-96
2023/10/22 02:29:02;;;;;;;4.43;1.83;;;7.40;99.90;;;;;;5104448;28;20056;-96
2023/10/22 02:31:28;;;;;;;7.85;2.35;;;7.40;99.90;;;;;;5103075;28;20024;-95
2023/10/22 02:34:07;;;;;;;3.53;1.83;;;7.40;99.90;;;;;;5102166;28;20032;-94
2023/10/22 02:36:34;;;;;;;3.88;1.67;;;7.40;99.90;;;;;;5101234;28;20474;-95
2023/10/22 02:39:00;;;;;;;6.15;1.85;;;7.40;99.90;;;;;;5102859;28;20035;-95
2023/10/22 02:41:26;;;;;;;3.28;1.52;;;7.40;99.90;;;;;;5102808;28;20027;-96
2023/10/22 02:43:52;;;;;;;3.03;1.45;;;7.40;99.90;;;;;;5104197;28;20127;-95
2023/10/22 02:46:18;;;;;;;5.38;1.52;;;7.40;99.90;;;;;;5102869;28;20020;-95
2023/10/22 02:48:43;;;;;;;2.88;1.60;;;7.40;99.90;;;;;;5100556;28;20078;-96
2023/10/22 02:51:09;;;;;;;2.83;1.40;;;7.40;99.90;;;;;;5098366;28;20074;-94
2023/10/22 02:53:35;;;;;;;2.60;2.17;;;7.40;99.90;;;;;;5098478;28;20482;-95
2023/10/22 02:56:01;;;;;;;4.05;1.45;;;7.40;99.90;;;;;;5102431;28;20050;-94
2023/10/22 02:58:29;;;;;;;4.38;1.40;;;7.50;99.90;;;;;;5103024;28;20118;-96
2023/10/22 03:00:55;;;;;;;2.38;1.25;;;7.50;99.90;;;;;;5103652;28;20158;-94
2023/10/22 03:03:24;;;;;;;2.70;1.33;;;7.50;99.90;;;;;;5107173;28;20039;-96
2023/10/22 03:05:50;;;;;;;2.97;1.55;;;7.40;99.90;;;;;;5109055;28;20031;-96
2023/10/22 03:08:15;;;;;;;2.85;1.38;;;7.50;99.90;;;;;;5109395;28;20035;-93
2023/10/22 03:10:41;;;;;;;14.27;3.38;;;7.50;99.90;;;;;;5106507;28;20028;-95
2023/10/22 03:13:07;;;;;;;3.38;1.58;;;7.50;99.90;;;;;;5105544;28;20084;-95
2023/10/22 03:15:32;;;;;;;4.22;1.25;;;7.50;99.90;;;;;;5106719;28;20032;-93
2023/10/22 03:17:58;;;;;;;4.60;1.63;;;7.40;99.90;;;;;;5111982;28;20085;-94
2023/10/22 03:20:24;;;;;;;1.63;1.42;;;7.40;99.90;;;;;;5106355;28;20028;-94
2023/10/22 03:22:50;;;;;;;4.18;1.58;;;7.50;99.90;;;;;;5106193;28;20027;-94
2023/10/22 03:25:17;;;;;;;3.20;1.20;;;7.40;99.90;;;;;;5109672;28;20032;-95
2023/10/22 03:27:42;;;;;;;2.40;1.50;;;7.40;99.90;;;;;;5088612;28;20056;-96
2023/10/22 03:30:10;;;;;;;4.28;1.40;;;7.40;99.90;;;;;;5105306;28;20569;-95
2023/10/22 03:32:36;;;;;;;2.00;1.75;;;7.50;99.90;;;;;;5107622;28;20054;-95
2023/10/22 03:35:06;;;;;;;5.53;1.33;;;7.50;99.90;;;;;;5108360;28;20060;-95
2023/10/22 03:37:31;;;;;;;5.93;1.80;;;7.50;99.90;;;;;;5109047;28;20080;-94
2023/10/22 03:39:57;;;;;;;3.67;1.50;;;7.40;99.90;;;;;;5108448;28;20168;-95
2023/10/22 03:42:22;;;;;;;8.52;1.98;;;7.50;99.90;;;;;;5108498;28;20063;-95
2023/10/22 03:44:48;;;;;;;7.22;1.80;;;7.50;99.90;;;;;;5110722;28;20064;-96
2023/10/22 03:47:14;;;;;;;2.33;1.60;;;7.50;99.90;;;;;;5108186;28;20112;-96
2023/10/22 03:49:39;;;;;;;3.22;1.35;;;7.40;99.90;;;;;;5109536;28;20035;-95
2023/10/22 03:52:05;;;;;;;4.28;1.27;;;7.40;99.90;;;;;;5108076;28;20023;-95
2023/10/22 03:54:31;;;;;;;1.90;1.17;;;7.40;99.90;;;;;;5108818;28;20021;-94
2023/10/22 03:56:57;;;;;;;1.77;1.52;;;7.40;99.90;;;;;;5108604;28;20024;-95
2023/10/22 03:59:23;;;;;;;2.05;1.60;;;7.50;99.90;;;;;;5108687;28;20059;-96
2023/10/22 04:01:48;;;;;;;3.95;1.80;;;7.40;99.90;;;;;;5111177;28;20043;-95
2023/10/22 04:04:14;;;;;;;4.00;1.33;;;7.50;99.90;;;;;;5112808;28;20027;-93
2023/10/22 04:06:40;;;;;;;1.70;1.20;;;7.50;99.90;;;;;;5109585;28;20035;-96
2023/10/22 04:09:05;;;;;;;3.08;1.35;;;7.50;99.90;;;;;;5111833;28;20031;-93
2023/10/22 04:11:31;;;;;;;3.78;1.63;;;7.50;99.90;;;;;;5111042;28;20038;-95
2023/10/22 04:13:56;;;;;;;2.75;1.30;;;7.50;99.90;;;;;;5110190;28;20032;-94
2023/10/22 04:16:22;;;;;;;4.88;2.95;;;7.50;99.90;;;;;;5107986;28;20032;-95
2023/10/22 04:18:47;;;;;;;1.20;1.10;;;7.50;99.90;;;;;;5107883;28;20020;-95
2023/10/22 04:21:14;;;;;;;3.42;1.30;;;7.50;99.90;;;;;;5107257;28;20035;-95
2023/10/22 04:23:40;;;;;;;4.82;1.73;;;7.50;99.90;;;;;;5110878;28;20039;-94
2023/10/22 04:26:15;;;;;;;4.00;1.70;;;7.50;99.90;;;;;;5113519;28;20035;-95
2023/10/22 04:28:45;;;;;;;2.20;1.40;;;7.50;99.90;;;;;;5113171;28;20077;-95
2023/10/22 04:31:11;;;;;;;2.38;1.52;;;7.50;99.90;;;;;;5113770;28;20028;-95
2023/10/22 04:33:36;;;;;;;5.28;1.38;;;7.50;99.90;;;;;;5111130;28;20028;-95
2023/10/22 04:36:03;;;;;;;4.82;1.65;;;7.50;99.90;;;;;;5106645;28;20028;-95
2023/10/22 04:38:29;;;;;;;8.60;1.38;;;7.50;99.90;;;;;;5107274;28;20071;-96
2023/10/22 04:40:55;;;;;;;2.47;1.83;;;7.50;99.90;;;;;;5109936;28;20096;-95
2023/10/22 04:43:21;;;;;;;4.65;2.00;;;7.50;99.90;;;;;;5110017;28;20034;-96
2023/10/22 04:45:50;;;;;;;4.47;1.90;;;7.50;99.90;;;;;;5115314;28;20083;-95
2023/10/22 04:48:16;;;;;;;3.22;1.73;;;7.50;99.90;;;;;;5113663;28;20031;-96
2023/10/22 04:50:42;;;;;;;2.63;2.15;;;7.50;99.90;;;;;;5115005;28;20024;-96
2023/10/22 04:53:08;;;;;;;5.88;2.60;;;7.50;99.90;;;;;;5112718;28;20043;-95
2023/10/22 04:55:34;;;;;;;4.05;2.10;;;7.40;99.90;;;;;;5111892;28;20032;-95
2023/10/22 04:58:02;;;;;;;3.13;1.85;;;7.40;99.90;;;;;;5109790;28;20024;-95
2023/10/22 05:00:27;;;;;;;5.47;2.00;;;7.40;99.90;;;;;;5112731;28;20032;-96
2023/10/22 05:02:53;;;;;;;4.72;2.38;;;7.40;99.90;;;;;;5115102;28;20032;-96
2023/10/22 05:05:20;;;;;;;4.80;1.85;;;7.40;99.90;;;;;;5114131;28;20024;-96
2023/10/22 05:07:47;;;;;;;1.70;1.60;;;7.40;99.90;;;;;;5113603;28;20287;-96
2023/10/22 05:10:13;;;;;;;3.58;1.42;;;7.30;99.90;;;;;;5114635;28;20038;-96
2023/10/22 05:12:39;;;;;;;3.53;2.00;;;7.30;99.90;;;;;;5116138;28;20097;-91
2023/10/22 05:15:05;;;;;;;1.95;1.45;;;7.30;99.90;;;;;;5116821;28;20012;-96
2023/10/22 05:17:31;;;;;;;4.13;2.03;;;7.30;99.90;;;;;;5117269;28;20015;-88
2023/10/22 05:19:56;;;;;;;3.53;1.60;;;7.30;99.90;;;;;;5117385;28;20088;-91
2023/10/22 05:22:23;;;;;;;3.53;1.75;;;7.30;99.90;;;;;;5117339;28;20036;-90
2023/10/22 05:24:49;;;;;;;2.45;1.90;;;7.30;99.90;;;;;;5118193;28;20083;-90
2023/10/22 05:27:16;;;;;;;4.03;2.00;;;7.20;99.90;;;;;;5120709;28;20048;-91
2023/10/22 05:29:48;;;;;;;2.78;1.65;;;7.20;99.90;;;;;;5120952;28;20114;-91
2023/10/22 05:32:17;;;;;;;2.88;1.70;;;7.20;99.90;;;;;;5119736;28;20103;-93
2023/10/22 05:34:43;;;;;;;3.95;1.70;;;7.20;99.90;;;;;;5119871;28;20024;-94
2023/10/22 05:37:09;;;;;;;4.65;2.20;;;7.20;99.90;;;;;;5120473;28;20031;-93
2023/10/22 05:39:36;;;;;;;2.05;1.55;;;7.20;99.90;;;;;;5120713;28;20016;-92
2023/10/22 05:42:04;;;;;;;2.22;1.88;;;7.20;99.90;;;;;;5118643;28;20085;-92
2023/10/22 05:44:30;;;;;;;3.55;2.00;;;7.20;99.90;;;;;;5118077;28;20095;-93
2023/10/22 05:46:56;;;;;;;7.00;2.00;;;7.20;99.90;;;;;;5120158;28;20084;-90
2023/10/22 05:49:21;;;;;;;2.72;1.55;;;7.20;99.90;;;;;;5120756;28;20036;-94
2023/10/22 05:51:47;;;;;;;1.83;1.42;;;7.20;99.90;;;;;;5120385;28;20028;-93
2023/10/22 05:54:13;;;;;;;4.40;1.65;;;7.20;99.90;;;;;;5120079;28;20081;-94
2023/10/22 05:56:38;;;;;;;3.20;1.85;;;7.20;99.90;;;;;;5116864;28;20050;-96
2023/10/22 05:59:08;;;;;;;1.38;1.27;;;7.20;99.90;;;;;;5115309;28;20100;-95
2023/10/22 06:01:38;;;;;;;2.45;1.40;;;7.20;99.90;;;;;;5115500;28;20028;-95
2023/10/22 06:04:07;;;;;;;1.83;1.30;;;7.10;99.90;;;;;;5114422;28;20103;-96
2023/10/22 06:06:32;;;;;;;3.45;1.92;;;7.10;99.90;;;;;;5114149;28;20032;-95
2023/10/22 06:08:58;;;;;;;2.92;1.50;;;7.10;99.90;;;;;;5115550;28;20024;-95
2023/10/22 06:11:24;;;;;;;4.50;1.73;;;7.10;99.90;;;;;;5115809;28;20082;-96
2023/10/22 06:13:49;;;;;;;2.10;1.20;;;7.10;99.90;;;;;;5115973;28;20039;-95
2023/10/22 06:16:15;;;;;;;3.75;1.40;;;7.10;99.90;;;;;;5114927;28;20020;-95
2023/10/22 06:18:41;;;;;;;2.45;2.10;;;7.20;99.90;;;;;;5113613;28;20025;-95
2023/10/22 06:21:14;;;;;;;5.30;2.38;;;7.20;99.90;;;;;;5113188;28;20039;-93
2023/10/22 06:23:40;;;;;;;5.18;1.27;;;7.20;99.90;;;;;;5110226;28;20114;-95
2023/10/22 06:26:10;;;;;;;2.55;1.27;;;7.20;99.90;;;;;;5111902;28;20091;-95
2023/10/22 06:28:36;;;;;;;1.20;1.10;;;7.20;99.90;;;;;;5111642;28;20054;-96
2023/10/22 06:31:13;;;;;;;2.90;1.10;;;7.30;99.90;;;;;;5110640;28;20028;-95
2023/10/22 06:33:40;;;;;;;1.45;1.08;;;7.30;99.90;;;;;;5111223;28;20024;-96
2023/10/22 06:36:17;;;;;;;2.45;1.10;;;7.30;99.90;;;;;;5112430;28;20012;-95
2023/10/22 06:38:44;;;;;;;4.78;1.17;;;7.20;99.90;;;;;;5112168;28;20368;-95
2023/10/22 06:41:26;;;;;;;4.13;1.25;;;7.20;99.90;;;;;;5113325;28;20043;-96
2023/10/22 06:43:53;;;;;;;3.80;1.35;;;7.10;99.90;;;;;;5105476;28;20058;-95
2023/10/22 06:46:19;;;;;;;2.15;1.10;;;7.10;99.90;;;;;;5106437;28;20020;-96
2023/10/22 06:48:45;;;;;;;1.50;1.20;;;7.00;99.90;;;;;;5108682;28;20042;-95
2023/10/22 06:51:15;;;;;;;1.70;1.30;;;7.00;99.90;;;;;;5110955;28;20043;-96
2023/10/22 06:53:42;;;;;;;6.68;1.23;;;7.00;99.90;;;;;;5105095;28;20028;-96
2023/10/22 06:56:08;;;;;;;3.13;1.27;;;7.00;99.90;;;;;;5104820;28;20059;-96
2023/10/22 06:58:35;;;;;;;4.57;1.40;;;7.00;99.90;;;;;;5102218;28;20040;-95
2023/10/22 07:01:12;;;;;;;2.70;1.20;;;6.90;99.90;;;;;;5105706;28;20248;-96
2023/10/22 07:03:47;;;;;;;2.13;1.23;;;6.90;99.90;;;;;;5103185;28;20103;-95
2023/10/22 07:06:14;;;;;;;4.72;1.45;;;6.90;99.90;;;;;;5103459;28;20092;-94
2023/10/22 07:08:39;;;;;;;4.00;1.50;;;6.90;99.90;;;;;;5103784;28;20081;-96
2023/10/22 07:11:05;;;;;;;4.53;1.50;;;6.90;99.90;;;;;;5101866;28;20020;-95
2023/10/22 07:13:31;;;;;;;1.30;1.17;;;6.90;99.90;;;;;;5100962;28;20031;-94
2023/10/22 07:15:57;;;;;;;5.75;1.42;;;6.90;99.90;;;;;;5101479;28;20031;-94
2023/10/22 07:18:23;;;;;;;2.45;1.27;;;6.80;99.90;;;;;;5103059;28;20020;-95
2023/10/22 07:20:49;;;;;;;5.25;1.70;;;6.90;99.90;;;;;;5105998;28;20030;-94
2023/10/22 07:23:15;;;;;;;2.38;1.30;;;6.80;99.90;;;;;;5111740;28;20024;-94
2023/10/22 07:25:41;;;;;;;3.17;1.27;;;6.90;99.90;;;;;;5115858;28;20042;-94
2023/10/22 07:28:06;;;;;;;2.83;1.50;;;6.80;99.90;;;;;;5112041;28;20048;-95
2023/10/22 07:30:33;;;;;;;3.95;1.17;;;6.90;99.90;;;;;;5117141;28;20034;-96
2023/10/22 07:32:59;;;;;;;1.00;0.95;;;6.90;99.90;;;;;;5112586;28;20030;-94
2023/10/22 07:35:24;;;;;;;3.20;1.33;;;6.90;99.90;;;;;;5111590;28;20020;-96
2023/10/22 07:37:50;;;;;;;3.55;1.30;;;7.00;99.90;;;;;;5114218;28;20028;-96
2023/10/22 07:40:20;;;;;;;4.05;1.55;;;7.00;99.90;;;;;;5112073;28;20087;-94
2023/10/22 07:42:48;;;;;;;1.25;0.90;;;7.00;99.90;;;;;;5114173;28;20023;-96
2023/10/22 07:45:14;;;;;;;5.57;1.00;;;7.00;99.90;;;;;;5109826;28;20035;-96
2023/10/22 07:47:40;;;;;;;0.85;0.73;;;7.10;99.90;;;;;;5109783;28;20032;-94
2023/10/22 07:50:06;;;;;;;1.60;0.95;;;7.10;99.90;;;;;;5109320;28;20020;-94
2023/10/22 07:52:32;;;;;;;4.43;1.50;;;7.10;99.90;;;;;;5110579;28;20035;-94
2023/10/22 07:54:58;;;;;;;3.20;1.23;;;7.10;99.90;;;;;;5111921;28;20088;-95
2023/10/22 07:57:26;;;;;;;5.32;1.60;;;7.10;99.90;;;;;;5112563;28;20034;-94
2023/10/22 07:59:52;;;;;;;1.52;1.13;;;7.20;99.90;;;;;;5110935;28;20013;-94
2023/10/22 08:02:18;;;;;;;4.60;1.90;;;7.10;99.90;;;;;;5112872;28;20055;-96
2023/10/22 08:04:43;;;;;;;2.17;1.23;;;7.20;99.90;;;;;;5110501;28;20398;-96
2023/10/22 08:07:09;;;;;;;6.85;2.00;;;7.20;99.90;;;;;;5106671;28;20032;-95
2023/10/22 08:09:34;;;;;;;4.70;1.27;;;7.30;99.90;;;;;;5106363;28;20027;-95
2023/10/22 08:12:00;;;;;;;4.35;1.10;;;7.30;99.90;;;;;;5107656;28;20028;-94
2023/10/22 08:14:26;;;;;;;2.25;1.30;;;7.30;99.90;;;;;;5110198;28;20024;-94
2023/10/22 08:16:51;;;;;;;2.50;1.15;;;7.40;99.90;;;;;;5106392;28;20081;-93
2023/10/22 08:19:17;;;;;;;3.70;1.25;;;7.40;99.90;;;;;;5108980;28;20019;-92
2023/10/22 08:21:52;;;;;;;6.32;1.48;;;7.50;99.90;;;;;;5110997;28;20024;-94
2023/10/22 08:24:18;;;;;;;1.58;0.70;;;7.60;99.90;;;;;;5107286;28;20032;-93
2023/10/22 08:26:43;;;;;;;2.83;0.90;;;7.60;99.90;;;;;;5107175;28;20015;-96
2023/10/22 08:29:09;;;;;;;6.25;1.50;;;7.60;99.90;;;;;;5112101;28;20035;-94
2023/10/22 08:31:35;;;;;;;1.73;1.33;;;7.70;99.90;;;;;;5111209;28;20046;-94
2023/10/22 08:34:01;;;;;;;3.80;1.38;;;7.70;99.90;;;;;;5111568;28;20032;-96
2023/10/22 08:36:27;;;;;;;2.90;1.33;;;7.80;99.90;;;;;;5110164;28;20024;-94
2023/10/22 08:38:53;;;;;;;4.60;1.48;;;7.80;99.90;;;;;;5111275;28;20108;-95
2023/10/22 08:41:25;;;;;;;6.88;1.73;;;7.90;99.90;;;;;;5108263;28;20048;-95
2023/10/22 08:43:51;;;;;;;3.22;1.00;;;7.90;99.90;;;;;;5112031;28;20020;-95
2023/10/22 08:46:17;;;;;;;4.65;1.40;;;8.00;99.90;;;;;;5112466;28;20021;-95
2023/10/22 08:48:44;;;;;;;4.47;1.20;;;8.00;99.90;;;;;;5107633;28;20039;-96
2023/10/22 08:51:10;;;;;;;2.97;1.50;;;8.10;99.90;;;;;;5108951;28;20024;-94
2023/10/22 08:53:36;;;;;;;4.30;1.10;;;8.20;99.90;;;;;;5112513;28;20032;-91
2023/10/22 08:56:03;;;;;;;3.50;1.00;;;8.20;99.90;;;;;;5113106;28;20024;-95
2023/10/22 08:58:29;;;;;;;3.47;1.08;;;8.30;99.90;;;;;;5109158;28;20028;-96
2023/10/22 09:00:54;;;;;;;2.63;1.15;;;8.40;99.90;;;;;;5108377;28;20026;-96
2023/10/22 09:03:24;;;;;;;6.00;1.48;;;8.40;99.90;;;;;;5110430;28;20028;-96
2023/10/22 09:05:51;;;;;;;4.72;0.93;;;8.60;99.90;;;;;;5112143;28;20021;-96
2023/10/22 09:08:16;;;;;;;5.13;0.88;;;8.60;99.90;;;;;;5105855;28;20036;-96
2023/10/22 09:10:42;;;;;;;3.22;0.70;;;8.70;99.90;;;;;;5105588;28;20020;-95
2023/10/22 09:13:16;;;;;;;1.60;0.80;;;8.80;99.90;;;;;;5108077;28;20016;-94
2023/10/22 09:15:49;;;;;;;4.85;1.00;;;8.90;99.90;;;;;;5110688;28;20020;-93
2023/10/22 09:18:16;;;;;;;3.88;0.80;;;9.10;99.90;;;;;;5118390;28;20028;-95
2023/10/22 09:20:44;;;;;;;2.90;1.00;;;9.30;99.90;;;;;;5120502;28;20020;-96
2023/10/22 09:23:21;;;;;;;4.70;1.00;;;9.50;99.90;;;;;;5120449;28;20020;-95
2023/10/22 09:25:56;;;;;;;2.88;0.70;;;9.70;99.90;;;;;;5120033;28;20031;-94
2023/10/22 09:28:24;;;;;;;6.00;1.00;;;10.00;99.90;;;;;;5117601;28;20060;-96
2023/10/22 09:31:03;;;;;;;2.30;0.70;;;10.20;99.90;;;;;;5118235;28;20012;-94
2023/10/22 09:33:33;;;;;;;5.75;0.70;;;10.50;99.90;;;;;;5117616;28;20054;-95
2023/10/22 09:36:00;;;;;;;;;;;10.70;99.90;;;;;;5118623;28;20043;-96
2023/10/22 09:38:52;;;;;;;3.40;0.60;;;11.00;99.90;;;;;;5119702;28;19896;-96
2023/10/22 09:41:27;;;;;;;4.20;1.13;;;11.30;99.90;;;;;;5114443;28;20032;-96
2023/10/22 09:43:54;;;;;;;15.10;5.82;;;11.60;99.90;;;;;;5119713;28;20020;-91
2023/10/22 09:46:20;;;;;;;14.98;6.53;;;11.90;99.90;;;;;;5120237;28;20071;-93
2023/10/22 09:48:50;;;;;;;5.78;1.88;;;12.10;99.90;;;;;;5120785;28;20044;-91
2023/10/22 09:51:17;;;;;;;4.53;0.93;;;12.40;99.90;;;;;;5120941;28;20015;-91
2023/10/22 09:53:53;;;;;;;6.55;0.80;;;12.60;99.90;;;;;;5120224;28;20095;-92
2023/10/22 09:56:20;;;;;;;7.20;1.30;;;12.80;99.90;;;;;;5120223;28;20016;-93
2023/10/22 09:58:48;;;;;;;9.52;1.42;;;12.90;99.90;;;;;;5120664;28;20016;-94
2023/10/22 10:01:15;;;;;;;8.13;2.60;;;13.00;99.90;;;;;;5120208;28;20035;-92
2023/10/22 10:03:42;;;;;;;1.25;0.50;;;13.20;99.90;;;;;;5120267;28;20020;-93
2023/10/22 10:06:08;;;;;;;3.58;0.85;;;13.30;99.90;;;;;;5119703;28;20024;-92
2023/10/22 10:08:36;;;;;;;2.40;0.70;;;13.60;99.90;;;;;;5119309;28;20047;-93
2023/10/22 10:11:05;;;;;;;2.33;0.88;;;13.80;99.90;;;;;;5119921;28;20020;-93
2023/10/22 10:13:30;;;;;;;3.38;1.00;;;14.00;99.90;;;;;;5116564;28;20035;-92
2023/10/22 10:16:01;;;;;;;4.32;1.00;;;14.00;99.90;;;;;;5118605;28;20008;-94
2023/10/22 10:19:03;;;;;;;2.42;1.17;;;14.10;99.90;;;;;;5117476;28;20024;-94
2023/10/22 10:21:36;;;;;;;5.28;1.00;;;14.20;99.90;;;;;;5114576;28;20024;-94
2023/10/22 10:24:18;;;;;;;0.75;0.52;;;14.40;99.90;;;;;;5115823;28;20024;-94
2023/10/22 10:26:50;;;;;;;4.10;0.90;;;14.40;99.90;;;;;;5116140;28;20071;-95
2023/10/22 10:29:21;;;;;;;4.00;0.60;;;14.50;99.90;;;;;;5112614;28;20040;-95
2023/10/22 10:31:48;;;;;;;2.42;1.05;;;14.60;99.90;;;;;;5114138;28;20094;-93
2023/10/22 10:34:33;;;;;;;4.63;2.03;;;14.80;99.90;;;;;;5115246;28;20085;-96
2023/10/22 10:37:19;;;;;;;2.28;1.30;;;15.10;99.90;;;;;;5115962;28;20122;-94
2023/10/22 10:39:47;;;;;;;3.35;0.90;;;15.30;99.90;;;;;;5116382;28;20004;-93
2023/10/22 10:42:14;;;;;;;6.68;2.90;;;15.50;99.90;;;;;;5116411;28;20023;-95
2023/10/22 10:44:55;;;;;;;10.00;3.67;;;15.70;99.90;;;;;;5117798;28;20097;-94
2023/10/22 10:47:21;;;;;;;4.32;1.40;;;15.80;98.40;;;;;;5117644;28;20050;-94
2023/10/22 10:50:05;;;;;;;11.57;2.00;;;15.80;97.00;;;;;;5109985;28;20008;-94
2023/10/22 10:52:34;;;;;;;12.43;4.18;;;15.80;93.50;;;;;;5111733;28;20031;-95
2023/10/22 10:55:16;;;;;;;8.32;1.95;;;15.70;93.60;;;;;;5108914;28;20020;-94
2023/10/22 10:57:46;;;;;;;5.13;1.63;;;15.70;93.70;;;;;;5105479;28;20035;-95
2023/10/22 11:00:19;;;;;;;12.30;3.95;;;15.80;94.10;;;;;;5106704;28;20016;-95
2023/10/22 11:02:49;;;;;;;2.85;0.80;;;16.00;93.50;;;;;;5109286;28;20040;-94
2023/10/22 11:05:15;;;;;;;10.13;2.45;;;16.10;92.50;;;;;;5104878;28;20031;-94
2023/10/22 11:07:43;;;;;;;10.25;2.58;;;16.40;91.60;;;;;;5104928;28;20486;-94
2023/10/22 11:10:14;;;;;;;31.88;11.23;;;16.60;91.00;;;;;;5100018;28;20031;-94
2023/10/22 11:12:40;;;;;;;7.75;2.85;;;16.40;90.10;;;;;;5096434;28;20017;-94
2023/10/22 11:15:09;;;;;;;29.88;10.98;;;16.30;89.50;;;;;;5096124;28;20032;-94
2023/10/22 11:17:41;;;;;;;4.07;1.45;;;16.20;90.20;;;;;;5097930;28;20032;-93
2023/10/22 11:20:08;;;;;;;6.45;2.05;;;16.30;90.50;;;;;;5096176;28;20281;-94
2023/10/22 11:22:36;;;;;;;5.53;1.45;;;16.40;89.30;;;;;;5097340;28;20023;-94
2023/10/22 11:25:05;;;;;;;5.03;2.22;;;16.50;88.90;;;;;;5099108;28;20020;-94
2023/10/22 11:27:32;;;;;;;4.70;2.08;;;16.70;88.00;;;;;;5098142;28;20090;-93
2023/10/22 11:30:00;;;;;;;2.85;0.80;;;17.00;88.10;;;;;;5100019;28;20024;-94
2023/10/22 11:32:26;;;;;;;2.72;1.50;;;17.20;87.00;;;;;;5098692;28;20428;-93
2023/10/22 11:34:59;;;;;;;2.30;0.93;;;17.40;85.70;;;;;;5095715;28;20087;-93
2023/10/22 11:37:36;;;;;;;2.08;0.73;;;17.60;84.70;;;;;;5095976;28;20071;-93
2023/10/22 11:40:30;;;;;;;2.30;0.70;;;17.60;82.80;;;;;;5097837;28;20020;-94
2023/10/22 11:43:05;;;;;;;0.52;0.40;;;17.50;80.10;;;;;;5096753;28;20020;-94
2023/10/22 11:45:35;;;;;;;6.75;1.27;;;17.10;79.20;;;;;;5096484;28;20436;-94
2023/10/22 11:48:14;;;;;;;1.35;0.70;;;17.10;80.80;;;;;;5094925;28;20046;-94
2023/10/22 11:50:47;;;;;;;3.22;0.93;;;17.30;81.80;;;;;;5096377;28;20039;-95
2023/10/22 11:53:13;;;;;;;2.45;0.80;;;17.60;81.30;;;;;;5094696;28;20052;-94
2023/10/22 11:55:39;;;;;;;2.97;0.75;;;17.90;81.30;;;;;;5094979;28;20529;-93
2023/10/22 11:58:18;;;;;;;2.85;1.10;;;18.20;79.50;;;;;;5093981;28;20030;-93
2023/10/22 12:00:48;;;;;;;2.55;1.27;;;18.30;78.70;;;;;;5093833;28;20024;-94
2023/10/22 12:03:14;;;;;;;2.42;1.38;;;18.50;78.30;;;;;;5093886;28;20030;-95
2023/10/22 12:05:41;;;;;;;3.20;0.80;;;18.70;77.40;;;;;;5098813;28;20097;-94
2023/10/22 12:08:06;;;;;;;9.00;2.85;;;18.60;75.10;;;;;;5106806;28;20043;-94
2023/10/22 12:10:32;;;;;;;6.07;2.20;;;18.50;75.30;;;;;;5108057;28;20024;-95
2023/10/22 12:12:57;;;;;;;2.42;0.90;;;18.50;75.80;;;;;;5105726;28;20035;-94
2023/10/22 12:15:25;;;;;;;3.83;1.77;;;18.60;75.40;;;;;;5107363;28;20088;-95
2023/10/22 12:17:51;;;;;;;5.35;2.17;;;18.70;74.50;;;;;;5107289;28;20057;-94
2023/10/22 12:20:17;;;;;;;3.60;1.40;;;18.70;74.40;;;;;;5107227;28;20019;-94
2023/10/22 12:22:43;;;;;;;4.88;1.10;;;18.80;74.10;;;;;;5105743;28;20183;-95
2023/10/22 12:25:08;;;;;;;2.78;1.48;;;18.90;72.60;;;;;;5104849;28;20289;-95
2023/10/22 12:27:34;;;;;;;3.92;1.40;;;18.70;70.10;;;;;;5103547;28;20040;-93
2023/10/22 12:30:01;;;;;;;5.38;2.67;;;18.50;70.90;;;;;;5105207;28;20070;-95
2023/10/22 12:32:27;;;;;;;12.68;5.22;;;18.50;70.70;;;;;;5105192;28;20102;-96
2023/10/22 12:34:52;;;;;;;7.82;3.40;;;18.70;70.70;;;;;;5106831;28;20024;-96
2023/10/22 12:37:18;;;;;;;4.68;1.75;;;18.80;70.20;;;;;;5108282;28;20035;-95
2023/10/22 12:39:44;;;;;;;7.63;2.50;;;19.00;69.60;;;;;;5106274;28;20103;-96
2023/10/22 12:42:11;;;;;;;5.97;2.35;;;19.20;69.50;;;;;;5109335;28;20028;-95
2023/10/22 12:44:37;;;;;;;12.65;4.00;;;19.40;68.90;;;;;;5109580;28;20039;-94
2023/10/22 12:47:03;;;;;;;6.70;2.67;;;19.60;68.00;;;;;;5108977;28;20039;-94
2023/10/22 12:49:29;;;;;;;2.80;1.02;;;19.70;66.90;;;;;;5111013;28;20079;-94
2023/10/22 12:51:54;;;;;;;3.08;0.52;;;19.60;66.10;;;;;;5102969;28;20020;-95
2023/10/22 12:54:23;;;;;;;2.67;0.60;;;19.70;65.80;;;;;;5104166;28;20123;-94
2023/10/22 12:56:48;;;;;;;4.50;1.00;;;19.70;65.00;;;;;;5105470;28;20080;-94